Time;durP1;ratioP1;P1;durP2;ratioP2;P2;SDS_P1;SDS_P2;PMS_P1;PMS_P2;Temp;Humidity;BMP_temperature;BMP_pressure;BME280_temperature;BME280_humidity;BME280_pressure;Samples;Min_cycle;Max_cycle;Signal;HPM_P1;HPM_P2
2023/05/23 00:01:06;;;;;;;30.37;23.20;;;;;;;18.73;97.82;156176.22;4968275;28;20559;-78
2023/05/23 00:03:34;;;;;;;27.27;23.60;;;;;;;18.70;98.48;156168.38;4969235;28;20459;-78
2023/05/23 00:06:00;;;;;;;30.73;24.87;;;;;;;18.68;99.05;156163.19;4967134;28;21070;-78
2023/05/23 00:08:27;;;;;;;31.60;25.20;;;;;;;18.64;99.53;156152.75;4974677;28;20483;-78
2023/05/23 00:10:53;;;;;;;32.37;25.20;;;;;;;18.57;100.00;156134.53;4970465;28;20537;-78
2023/05/23 00:13:20;;;;;;;36.63;27.90;;;;;;;18.46;100.00;156105.81;4975782;28;20463;-78
2023/05/23 00:15:47;;;;;;;36.97;29.00;;;;;;;18.49;100.00;156114.97;4968638;28;20497;-78
2023/05/23 00:18:15;;;;;;;40.67;29.57;;;;;;;18.51;100.00;156118.88;4953802;28;20439;-78
2023/05/23 00:20:43;;;;;;;39.63;27.60;;;;;;;18.49;100.00;156114.97;4970973;28;21232;-78
2023/05/23 00:23:17;;;;;;;41.37;29.47;;;;;;;18.44;100.00;156100.59;4951862;28;20453;-78
2023/05/23 00:25:47;;;;;;;40.60;30.20;;;;;;;18.42;100.00;156096.72;4979564;28;20447;-78
2023/05/23 00:28:14;;;;;;;39.20;31.07;;;;;;;18.40;100.00;156091.47;4969100;28;20968;-78
2023/05/23 00:30:41;;;;;;;41.63;30.93;;;;;;;18.45;100.00;156103.22;4970397;28;20438;-78
2023/05/23 00:33:07;;;;;;;39.57;30.37;;;;;;;18.43;100.00;156097.97;4955177;28;20461;-78
2023/05/23 00:35:34;;;;;;;42.03;31.00;;;;;;;18.38;100.00;156084.97;4950977;28;20442;-78
2023/05/23 00:38:02;;;;;;;45.50;31.73;;;;;;;18.40;100.00;156090.22;4964979;28;20454;-78
2023/05/23 00:40:29;;;;;;;41.20;30.27;;;;;;;18.39;100.00;156088.88;4971727;28;20876;-78
2023/05/23 00:42:55;;;;;;;42.53;30.27;;;;;;;18.33;100.00;156071.94;4964125;28;20855;-78
2023/05/23 00:45:22;;;;;;;39.50;31.10;;;;;;;18.27;100.00;156058.91;4980249;28;20940;-78
2023/05/23 00:47:50;;;;;;;41.13;31.80;;;;;;;18.31;100.00;156066.75;4961165;28;20453;-78
2023/05/23 00:50:16;;;;;;;43.93;33.77;;;;;;;18.30;100.00;156064.13;4971503;28;20949;-78
2023/05/23 00:52:44;;;;;;;42.97;33.07;;;;;;;18.25;100.00;156053.72;4942073;28;20455;-78
2023/05/23 00:55:13;;;;;;;45.53;32.80;;;;;;;18.29;100.00;156062.84;4968776;28;21112;-78
2023/05/23 00:57:43;;;;;;;47.60;32.70;;;;;;;18.31;100.00;156068.06;4938669;28;20462;-78
2023/05/23 01:00:11;;;;;;;51.73;35.90;;;;;;;18.30;100.00;156065.44;4940166;28;20446;-78
2023/05/23 01:02:42;;;;;;;43.80;32.70;;;;;;;18.27;100.00;156058.91;4943827;28;20537;-78
2023/05/23 01:05:10;;;;;;;45.73;33.53;;;;;;;18.25;100.00;156053.72;4952044;28;20466;-78
2023/05/23 01:07:36;;;;;;;45.73;34.20;;;;;;;18.32;100.00;156069.38;4977310;28;20479;-78
2023/05/23 01:10:04;;;;;;;42.27;33.03;;;;;;;18.23;100.00;156047.22;4956581;28;21016;-78
2023/05/23 01:12:39;;;;;;;49.90;34.63;;;;;;;18.24;100.00;156049.84;4956391;28;20792;-78
2023/05/23 01:15:09;;;;;;;46.27;33.40;;;;;;;18.20;100.00;156039.38;4967669;28;20552;-78
2023/05/23 01:17:42;;;;;;;42.00;32.67;;;;;;;18.16;100.00;156030.25;4983384;28;20810;-78
2023/05/23 01:20:11;;;;;;;47.87;32.83;;;;;;;18.13;100.00;156022.50;4985874;28;20489;-78
2023/05/23 01:22:59;;;;;;;49.13;33.70;;;;;;;18.10;100.00;156013.34;4967949;28;20472;-78
2023/05/23 01:25:37;;;;;;;47.20;33.63;;;;;;;18.10;100.00;156014.66;4965270;28;20449;-78
2023/05/23 01:28:06;;;;;;;42.17;32.00;;;;;;;18.06;100.00;156002.91;4963059;28;20804;-78
2023/05/23 01:30:35;;;;;;;47.80;34.40;;;;;;;18.03;100.00;155995.16;4984180;28;20462;-78
2023/05/23 01:33:02;;;;;;;50.03;34.00;;;;;;;18.03;100.00;155995.16;4972098;28;20466;-78
2023/05/23 01:35:28;;;;;;;51.37;34.77;;;;;;;17.98;100.00;155983.38;4966213;28;20510;-78
2023/05/23 01:37:55;;;;;;;49.63;35.20;;;;;;;17.96;100.00;155978.19;4968121;28;20454;-78
2023/05/23 01:40:22;;;;;;;50.27;35.67;;;;;;;17.97;100.00;155979.50;4966395;28;20470;-78
2023/05/23 01:42:49;;;;;;;43.80;32.13;;;;;;;17.97;100.00;155980.81;4979440;28;20472;-78
2023/05/23 01:45:17;;;;;;;47.33;35.90;;;;;;;17.97;100.00;155979.50;4977817;28;20455;-78
2023/05/23 01:47:44;;;;;;;48.73;36.10;;;;;;;17.96;100.00;155978.19;4980835;28;20482;-78
2023/05/23 01:50:11;;;;;;;50.00;36.37;;;;;;;17.97;100.00;155980.81;4950671;28;20471;-78
2023/05/23 01:52:38;;;;;;;49.10;35.47;;;;;;;17.98;100.00;155982.06;4964384;28;20450;-78
2023/05/23 01:55:08;;;;;;;53.23;38.27;;;;;;;17.99;100.00;155984.69;4947144;28;20460;-78
2023/05/23 01:57:36;;;;;;;48.97;37.27;;;;;;;17.93;100.00;155970.38;4989963;28;20874;-78
2023/05/23 02:00:04;;;;;;;48.50;36.80;;;;;;;17.95;100.00;155974.31;4960993;28;21700;-78
2023/05/23 02:02:41;;;;;;;57.07;38.00;;;;;;;17.89;100.00;155958.66;4981396;28;20478;-78
2023/05/23 02:05:09;;;;;;;50.60;36.10;;;;;;;17.81;100.00;155939.16;4980316;28;20592;-78
2023/05/23 02:07:36;;;;;;;50.90;36.70;;;;;;;17.76;100.00;155926.13;4976892;28;20443;-78
2023/05/23 02:10:03;;;;;;;55.03;37.53;;;;;;;17.71;100.00;155911.81;5034158;23;20587;-76
2023/05/23 02:12:30;;;;;;;50.33;36.60;;;;;;;17.72;100.00;155915.69;5003556;28;20796;-76
2023/05/23 02:14:58;;;;;;;55.87;38.63;;;;;;;17.64;100.00;155894.84;4984096;28;20757;-77
2023/05/23 02:17:24;;;;;;;48.17;36.93;;;;;;;17.60;100.00;155884.47;4991146;28;20448;-77
2023/05/23 02:19:52;;;;;;;50.90;36.07;;;;;;;17.60;100.00;155884.47;4991486;28;20460;-77
2023/05/23 02:22:23;;;;;;;55.20;41.07;;;;;;;17.60;100.00;155884.47;4988946;28;20476;-77
2023/05/23 02:24:50;;;;;;;57.90;38.30;;;;;;;17.60;100.00;155884.47;5006981;28;20512;-77
2023/05/23 02:27:16;;;;;;;47.60;37.37;;;;;;;17.58;100.00;155880.53;4973738;28;20511;-77
2023/05/23 02:29:43;;;;;;;55.00;37.40;;;;;;;17.56;100.00;155874.03;4975863;28;20457;-77
2023/05/23 02:32:10;;;;;;;57.87;42.43;;;;;;;17.53;100.00;155866.22;4987291;28;20556;-77
2023/05/23 02:34:37;;;;;;;56.63;40.17;;;;;;;17.51;100.00;155860.97;4993612;28;20925;-77
2023/05/23 02:37:05;;;;;;;51.67;38.40;;;;;;;17.48;100.00;155853.16;4970569;28;20463;-77
2023/05/23 02:39:31;;;;;;;59.83;41.20;;;;;;;17.52;100.00;155863.59;4990269;28;20808;-77
2023/05/23 02:41:58;;;;;;;55.50;39.27;;;;;;;17.50;100.00;155858.38;5008774;28;20472;-76
2023/05/23 02:44:25;;;;;;;57.13;40.67;;;;;;;17.50;100.00;155858.38;4972468;28;21001;-77
2023/05/23 02:46:52;;;;;;;56.40;40.23;;;;;;;17.51;100.00;155860.97;4990258;28;20447;-78
2023/05/23 02:49:18;;;;;;;63.13;44.00;;;;;;;17.47;100.00;155851.84;4989023;28;20969;-78
2023/05/23 02:51:45;;;;;;;62.77;42.17;;;;;;;17.45;100.00;155846.63;4974203;28;20441;-77
2023/05/23 02:54:13;;;;;;;58.57;42.03;;;;;;;17.47;100.00;155850.56;5006186;28;20666;-77
2023/05/23 02:56:39;;;;;;;56.47;40.80;;;;;;;17.44;100.00;155842.75;4998649;28;20433;-78
2023/05/23 02:59:06;;;;;;;52.10;40.40;;;;;;;17.49;100.00;155857.09;5000162;28;20465;-78
2023/05/23 03:01:32;;;;;;;60.13;41.20;;;;;;;17.50;100.00;155858.38;4979164;28;20476;-77
2023/05/23 03:03:59;;;;;;;57.50;40.87;;;;;;;17.53;100.00;155866.22;5016353;28;20457;-78
2023/05/23 03:06:26;;;;;;;59.27;41.57;;;;;;;17.51;100.00;155862.28;5023147;28;20445;-77
2023/05/23 03:08:53;;;;;;;55.13;41.40;;;;;;;17.51;100.00;155862.28;4997891;28;20579;-78
2023/05/23 03:11:22;;;;;;;57.33;39.17;;;;;;;17.46;100.00;155847.94;4996109;28;20487;-78
2023/05/23 03:13:48;;;;;;;53.77;40.20;;;;;;;17.44;100.00;155842.75;5005261;28;20457;-78
2023/05/23 03:16:16;;;;;;;59.40;41.27;;;;;;;17.45;100.00;155845.34;4989496;28;20476;-78
2023/05/23 03:18:42;;;;;;;53.13;41.07;;;;;;;17.40;100.00;155832.31;5019286;28;20460;-78
2023/05/23 03:21:09;;;;;;;50.60;39.10;;;;;;;17.42;100.00;155837.56;5004367;28;20456;-78
2023/05/23 03:23:36;;;;;;;56.53;40.40;;;;;;;17.40;100.00;155832.31;4988896;28;21046;-78
2023/05/23 03:26:05;;;;;;;50.40;39.00;;;;;;;17.40;100.00;155832.31;4990357;28;20508;-78
2023/05/23 03:28:33;;;;;;;60.13;43.00;;;;;;;17.40;100.00;155832.31;4987398;28;20905;-78
2023/05/23 03:31:00;;;;;;;51.07;38.57;;;;;;;17.34;100.00;155816.72;5004239;28;20823;-78
2023/05/23 03:33:26;;;;;;;56.53;41.40;;;;;;;17.34;100.00;155818.00;4986498;28;20955;-78
2023/05/23 03:35:53;;;;;;;51.17;40.47;;;;;;;17.36;100.00;155821.94;5006680;28;20445;-78
2023/05/23 03:38:20;;;;;;;52.13;38.97;;;;;;;17.37;100.00;155824.50;4994973;28;20806;-78
2023/05/23 03:40:47;;;;;;;51.90;37.70;;;;;;;17.32;100.00;155812.81;5001730;28;20873;-78
2023/05/23 03:43:15;;;;;;;52.47;40.33;;;;;;;17.34;100.00;155816.72;4966287;28;20863;-78
2023/05/23 03:45:44;;;;;;;49.40;38.10;;;;;;;17.33;100.00;155814.13;4969726;28;20477;-78
2023/05/23 03:48:13;;;;;;;48.57;37.83;;;;;;;17.35;100.00;155819.31;4989141;28;21035;-78
2023/05/23 03:50:41;;;;;;;53.33;38.77;;;;;;;17.32;100.00;155812.81;5003575;28;20466;-78
2023/05/23 03:53:08;;;;;;;51.33;37.37;;;;;;;17.33;100.00;155814.13;4986743;28;20492;-78
2023/05/23 03:55:35;;;;;;;47.87;38.50;;;;;;;17.33;100.00;155814.13;4991286;28;20901;-78
2023/05/23 03:58:02;;;;;;;48.00;34.10;;;;;;;17.33;100.00;155814.13;4981462;28;20486;-82
2023/05/23 04:00:29;;;;;;;51.73;39.27;;;;;;;17.34;100.00;155816.72;4971934;28;20457;-82
2023/05/23 04:02:59;;;;;;;50.50;36.30;;;;;;;17.37;100.00;155825.81;4970411;28;20973;-82
2023/05/23 04:05:26;;;;;;;45.40;36.03;;;;;;;17.38;100.00;155827.13;4984649;28;20940;-82
2023/05/23 04:07:53;;;;;;;50.13;35.80;;;;;;;17.38;100.00;155827.13;4988938;28;20445;-82
2023/05/23 04:10:19;;;;;;;46.57;37.90;;;;;;;17.36;100.00;155821.94;4991290;28;20558;-82
2023/05/23 04:12:47;;;;;;;43.43;33.70;;;;;;;17.37;100.00;155824.50;4980716;28;20807;-83
2023/05/23 04:15:16;;;;;;;51.00;35.67;;;;;;;17.37;100.00;155824.50;4982444;28;20464;-85
2023/05/23 04:17:52;;;;;;;45.07;33.10;;;;;;;17.35;100.00;155820.63;4976864;28;20468;-85
2023/05/23 04:20:23;;;;;;;40.87;33.50;;;;;;;17.37;100.00;155824.50;4989169;28;21010;-84
2023/05/23 04:22:51;;;;;;;46.57;34.57;;;;;;;17.42;100.00;155837.56;4997116;28;20503;-84
2023/05/23 04:25:19;;;;;;;43.93;35.57;;;;;;;17.39;100.00;155829.75;4986615;28;20662;-84
2023/05/23 04:27:54;;;;;;;43.80;34.47;;;;;;;17.41;100.00;155836.25;4991039;28;21097;-84
2023/05/23 04:30:23;;;;;;;43.70;33.83;;;;;;;17.36;100.00;155823.25;4986607;28;20444;-84
2023/05/23 04:32:51;;;;;;;42.60;33.90;;;;;;;17.36;100.00;155821.94;5002654;28;20436;-84
2023/05/23 04:35:17;;;;;;;38.80;31.97;;;;;;;17.38;100.00;155827.13;4984400;28;20542;-85
2023/05/23 04:37:45;;;;;;;41.30;33.10;;;;;;;17.37;100.00;155825.81;4995452;28;20419;-85
2023/05/23 04:40:13;;;;;;;45.37;34.90;;;;;;;17.37;100.00;155824.50;5018642;28;20480;-85
2023/05/23 04:43:15;;;;;;;41.57;32.87;;;;;;;17.35;100.00;155819.31;4895653;29;20563;-85
2023/05/23 04:46:01;;;;;;;43.30;35.43;;;;;;;17.34;100.00;155816.72;5022116;28;20448;-86
2023/05/23 04:48:47;;;;;;;43.83;34.07;;;;;;;17.35;100.00;155819.31;4990260;28;20827;-85
2023/05/23 04:51:14;;;;;;;42.87;33.60;;;;;;;17.32;100.00;155812.81;4997596;28;20788;-85
2023/05/23 04:53:54;;;;;;;43.67;32.07;;;;;;;17.34;100.00;155818.00;4983259;28;20455;-86
2023/05/23 04:56:21;;;;;;;42.10;33.00;;;;;;;17.32;100.00;155811.50;4985665;28;20437;-85
2023/05/23 04:58:48;;;;;;;41.80;32.30;;;;;;;17.30;100.00;155806.28;5019000;28;20823;-85
2023/05/23 05:01:15;;;;;;;40.57;32.60;;;;;;;17.35;100.00;155819.31;4983524;28;20556;-85
2023/05/23 05:03:41;;;;;;;41.00;33.37;;;;;;;17.37;100.00;155824.50;4980121;28;20523;-85
2023/05/23 05:06:08;;;;;;;42.80;32.80;;;;;;;17.39;100.00;155831.06;4980761;28;20459;-85
2023/05/23 05:08:36;;;;;;;40.63;32.63;;;;;;;17.36;100.00;155821.94;5016743;28;20467;-85
2023/05/23 05:11:05;;;;;;;40.97;31.73;;;;;;;17.34;100.00;155818.00;4984445;28;20840;-85
2023/05/23 05:13:32;;;;;;;41.70;33.33;;;;;;;17.35;100.00;155820.63;4988285;28;20472;-86
2023/05/23 05:15:59;;;;;;;39.57;32.60;;;;;;;17.35;100.00;155819.31;4996912;28;20534;-85
2023/05/23 05:18:27;;;;;;;43.80;33.07;;;;;;;17.37;100.00;155825.81;5003268;28;20468;-85
2023/05/23 05:20:55;;;;;;;41.03;31.27;;;;;;;17.49;100.00;155857.09;4983920;28;20452;-85
2023/05/23 05:23:27;;;;;;;42.77;32.77;;;;;;;17.46;100.00;155847.94;4987384;28;20485;-86
2023/05/23 05:25:55;;;;;;;39.63;32.30;;;;;;;17.45;100.00;155845.34;5002864;28;20445;-85
2023/05/23 05:28:23;;;;;;;38.87;30.70;;;;;;;17.48;100.00;155854.47;4980492;28;20464;-85
2023/05/23 05:30:53;;;;;;;37.67;32.80;;;;;;;17.47;100.00;155851.84;4966060;28;20523;-86
2023/05/23 05:33:22;;;;;;;37.50;31.97;;;;;;;17.51;100.00;155860.97;4989969;28;20451;-84
2023/05/23 05:35:50;;;;;;;39.83;31.30;;;;;;;17.54;100.00;155870.16;4980685;28;20524;-85
2023/05/23 05:38:17;;;;;;;38.40;30.93;;;;;;;17.55;100.00;155872.72;5024119;28;20974;-86
2023/05/23 05:40:44;;;;;;;37.90;33.70;;;;;;;17.55;100.00;155871.47;4978420;28;20827;-85
2023/05/23 05:43:11;;;;;;;36.67;31.70;;;;;;;17.55;100.00;155872.72;4986836;28;20473;-85
2023/05/23 05:45:40;;;;;;;37.40;32.40;;;;;;;17.55;100.00;155872.72;4989386;28;20512;-85
2023/05/23 05:48:07;;;;;;;40.90;30.43;;;;;;;17.58;100.00;155879.22;4994853;28;20452;-85
2023/05/23 05:50:34;;;;;;;38.43;31.83;;;;;;;17.55;100.00;155871.47;4987728;28;20506;-84
2023/05/23 05:53:01;;;;;;;42.47;32.47;;;;;;;17.54;100.00;155868.84;4986379;28;21126;-85
2023/05/23 05:55:28;;;;;;;40.93;33.97;;;;;;;17.57;100.00;155877.97;5001893;28;20461;-86
2023/05/23 05:57:55;;;;;;;39.80;31.63;;;;;;;17.62;100.00;155889.66;5013590;28;20455;-85
2023/05/23 06:00:23;;;;;;;38.03;32.30;;;;;;;17.61;100.00;155887.03;4984662;28;20501;-85
2023/05/23 06:02:57;;;;;;;39.70;31.00;;;;;;;17.62;100.00;155890.97;4978731;28;20472;-85
2023/05/23 06:05:39;;;;;;;40.90;32.83;;;;;;;17.63;100.00;155892.28;4982964;28;20548;-86
2023/05/23 06:08:05;;;;;;;36.10;30.40;;;;;;;17.66;100.00;155900.06;4974699;28;20526;-86
2023/05/23 06:10:32;;;;;;;38.40;31.80;;;;;;;17.67;100.00;155902.69;4985460;28;20839;-86
2023/05/23 06:12:59;;;;;;;41.10;33.30;;;;;;;17.73;100.00;155918.31;5004371;28;20451;-86
2023/05/23 06:15:26;;;;;;;41.10;31.27;;;;;;;17.75;100.00;155923.50;4980424;28;20464;-86
2023/05/23 06:17:52;;;;;;;42.50;31.30;;;;;;;17.71;100.00;155911.81;4996797;28;20447;-86
2023/05/23 06:20:20;;;;;;;40.33;31.80;;;;;;;17.73;100.00;155917.00;4978849;28;20473;-86
2023/05/23 06:22:47;;;;;;;38.80;33.07;;;;;;;17.72;100.00;155915.69;4977226;28;20507;-85
2023/05/23 06:25:14;;;;;;;38.10;32.80;;;;;;;17.70;100.00;155910.50;5010261;28;20467;-86
2023/05/23 06:27:40;;;;;;;35.47;31.07;;;;;;;17.70;100.00;155910.50;4997996;28;20461;-86
2023/05/23 06:30:08;;;;;;;36.47;31.67;;;;;;;17.75;100.00;155923.50;4990512;28;20464;-88
2023/05/23 06:32:35;;;;;;;38.13;32.13;;;;;;;17.77;100.00;155928.69;4977250;28;20993;-85
2023/05/23 06:35:02;;;;;;;36.93;32.20;;;;;;;17.79;100.00;155932.63;4970798;28;20457;-87
2023/05/23 06:37:30;;;;;;;36.00;31.60;;;;;;;17.83;100.00;155943.03;4974927;28;20485;-86
2023/05/23 06:39:57;;;;;;;40.57;33.20;;;;;;;17.85;100.00;155949.53;4980617;28;20461;-86
2023/05/23 06:42:23;;;;;;;37.90;31.30;;;;;;;17.92;100.00;155967.78;4987316;28;20564;-86
2023/05/23 06:44:56;;;;;;;38.80;32.60;;;;;;;17.91;100.00;155965.16;4973124;28;20511;-86
2023/05/23 06:47:24;;;;;;;37.60;31.90;;;;;;;17.95;100.00;155975.56;4991576;28;20433;-86
2023/05/23 06:49:51;;;;;;;38.50;32.13;;;;;;;17.96;100.00;155976.88;4973365;28;20484;-86
2023/05/23 06:52:17;;;;;;;38.03;32.67;;;;;;;17.95;100.00;155975.56;4986069;28;20551;-85
2023/05/23 06:54:45;;;;;;;34.97;31.07;;;;;;;17.94;100.00;155973.00;5005405;28;20465;-83
2023/05/23 06:57:15;;;;;;;37.37;33.27;;;;;;;17.94;100.00;155971.69;4979549;28;20454;-83
2023/05/23 06:59:42;;;;;;;42.37;32.67;;;;;;;17.99;100.00;155984.69;4980291;28;20469;-83
2023/05/23 07:02:08;;;;;;;36.47;31.77;;;;;;;17.95;100.00;155975.56;4994271;28;20708;-85
2023/05/23 07:04:35;;;;;;;35.63;31.00;;;;;;;17.93;100.00;155970.38;4982159;28;20477;-86
2023/05/23 07:07:07;;;;;;;38.50;33.90;;;;;;;17.88;100.00;155957.34;4972706;28;20453;-86
2023/05/23 07:09:33;;;;;;;38.50;32.23;;;;;;;17.87;100.00;155954.72;5005719;28;20495;-85
2023/05/23 07:12:10;;;;;;;37.53;31.20;;;;;;;17.89;100.00;155959.97;5002394;28;20445;-86
2023/05/23 07:14:40;;;;;;;39.80;32.63;;;;;;;17.80;100.00;155936.53;4970155;28;20465;-86
2023/05/23 07:17:06;;;;;;;35.93;31.37;;;;;;;17.74;100.00;155919.63;5006780;28;20615;-86
2023/05/23 07:19:34;;;;;;;37.00;30.90;;;;;;;17.66;100.00;155900.06;4974787;28;20580;-86
2023/05/23 07:22:01;;;;;;;34.63;30.63;;;;;;;17.62;100.00;155889.66;4971083;28;20468;-86
2023/05/23 07:24:29;;;;;;;35.77;30.77;;;;;;;17.62;100.00;155889.66;4991058;28;20546;-86
2023/05/23 07:26:56;;;;;;;36.90;30.50;;;;;;;17.58;100.00;155879.22;5002207;28;20449;-86
2023/05/23 07:29:25;;;;;;;36.03;30.30;;;;;;;17.56;100.00;155875.34;4978188;28;20461;-86
2023/05/23 07:31:53;;;;;;;31.90;28.47;;;;;;;17.51;100.00;155860.97;4991100;28;20467;-86
2023/05/23 07:34:22;;;;;;;33.30;28.50;;;;;;;17.48;100.00;155853.16;4969315;28;20465;-86
2023/05/23 07:36:55;;;;;;;34.50;29.03;;;;;;;17.47;100.00;155850.56;5009934;28;20472;-86
2023/05/23 07:39:26;;;;;;;31.03;25.90;;;;;;;17.47;100.00;155850.56;4972655;28;20475;-86
2023/05/23 07:41:53;;;;;;;30.50;25.80;;;;;;;17.42;100.00;155837.56;4979743;28;20441;-86
2023/05/23 07:44:20;;;;;;;29.17;24.53;;;;;;;17.42;100.00;155838.81;4974505;28;20480;-86
2023/05/23 07:46:48;;;;;;;28.13;24.43;;;;;;;17.46;100.00;155849.25;4981271;28;20481;-86
2023/05/23 07:49:15;;;;;;;31.07;25.17;;;;;;;17.44;100.00;155842.75;4973181;28;20931;-86
2023/05/23 07:51:41;;;;;;;30.27;27.00;;;;;;;17.44;100.00;155842.75;5028791;28;20464;-86
2023/05/23 07:54:10;;;;;;;32.70;26.90;;;;;;;17.44;100.00;155842.75;4972694;28;20673;-88
2023/05/23 07:56:39;;;;;;;31.30;27.00;;;;;;;17.35;100.00;155820.63;4978425;28;20542;-87
2023/05/23 07:59:07;;;;;;;33.70;26.90;;;;;;;17.27;100.00;155798.47;4993608;28;20453;-87
2023/05/23 08:01:34;;;;;;;35.57;27.27;;;;;;;17.25;100.00;155793.28;4994187;28;20455;-87
2023/05/23 08:04:07;;;;;;;32.40;27.67;;;;;;;17.27;100.00;155798.47;4978330;28;20508;-87
2023/05/23 08:06:39;;;;;;;34.50;28.70;;;;;;;17.28;100.00;155801.09;4985166;28;20444;-87
2023/05/23 08:09:09;;;;;;;30.43;26.60;;;;;;;17.28;100.00;155801.09;4976351;28;20487;-87
2023/05/23 08:11:41;;;;;;;31.20;26.10;;;;;;;17.25;99.31;155793.28;4996268;28;20440;-87
2023/05/23 08:14:07;;;;;;;28.23;23.90;;;;;;;17.25;98.60;155794.59;5024855;28;20543;-87
2023/05/23 08:16:37;;;;;;;26.20;23.37;;;;;;;17.24;97.73;155791.97;4992255;28;20467;-87
2023/05/23 08:19:08;;;;;;;25.10;22.03;;;;;;;17.26;97.53;155795.91;5015774;28;20435;-87
2023/05/23 08:21:36;;;;;;;27.03;22.23;;;;;;;17.25;96.77;155793.28;5004326;28;20457;-87
2023/05/23 08:24:02;;;;;;;25.87;21.50;;;;;;;17.26;96.28;155797.16;4992408;28;20488;-87
2023/05/23 08:26:33;;;;;;;22.40;20.00;;;;;;;17.22;95.71;155785.47;4995382;28;20515;-87
2023/05/23 08:29:02;;;;;;;24.90;22.20;;;;;;;17.16;95.78;155769.84;5013459;28;20468;-87
2023/05/23 08:31:28;;;;;;;26.10;21.37;;;;;;;17.13;95.91;155762.06;4989312;28;20465;-87
2023/05/23 08:33:55;;;;;;;24.80;22.10;;;;;;;17.10;96.09;155754.25;4973910;28;20465;-87
2023/05/23 08:36:23;;;;;;;25.90;22.10;;;;;;;17.11;95.49;155756.84;4992146;28;20448;-86
2023/05/23 08:38:50;;;;;;;23.23;20.60;;;;;;;17.04;96.00;155741.25;4976284;28;20718;-88
2023/05/23 08:41:33;;;;;;;25.50;20.33;;;;;;;17.02;95.70;155734.75;4974902;28;20548;-86
2023/05/23 08:44:03;;;;;;;22.27;19.83;;;;;;;16.99;95.38;155728.25;4976080;28;20534;-87
2023/05/23 08:46:40;;;;;;;23.70;19.00;;;;;;;17.00;95.57;155730.81;5012090;28;20787;-87
2023/05/23 08:49:07;;;;;;;22.60;20.30;;;;;;;17.00;95.27;155730.81;4993577;28;20816;-87
2023/05/23 08:51:36;;;;;;;23.10;20.47;;;;;;;16.98;95.01;155725.63;4993010;28;20879;-87
2023/05/23 08:54:08;;;;;;;24.30;20.73;;;;;;;17.05;95.28;155743.81;4988607;28;20850;-87
2023/05/23 08:56:35;;;;;;;20.93;18.73;;;;;;;17.04;94.53;155741.25;4992915;28;20436;-87
2023/05/23 08:59:02;;;;;;;21.03;18.83;;;;;;;17.08;93.48;155749.06;4996673;28;20455;-87
2023/05/23 09:01:30;;;;;;;20.30;18.00;;;;;;;17.12;92.92;155759.47;4979641;28;20568;-87
2023/05/23 09:04:03;;;;;;;20.80;18.27;;;;;;;17.08;92.88;155750.34;4970582;28;20492;-87
2023/05/23 09:06:56;;;;;;;20.10;16.97;;;;;;;17.02;93.35;155736.00;4974951;28;20441;-87
2023/05/23 09:09:24;;;;;;;19.93;17.90;;;;;;;17.00;93.42;155730.81;4979642;28;20523;-87
2023/05/23 09:11:53;;;;;;;21.13;17.90;;;;;;;17.03;93.40;155737.31;4984721;28;20457;-88
2023/05/23 09:14:20;;;;;;;21.53;18.93;;;;;;;17.08;93.21;155750.34;4980798;28;20828;-87
2023/05/23 09:16:48;;;;;;;22.20;18.80;;;;;;;17.12;92.86;155760.78;4977072;28;20540;-87
2023/05/23 09:19:18;;;;;;;21.67;19.37;;;;;;;17.14;92.42;155764.66;4982090;28;20499;-87
2023/05/23 09:21:53;;;;;;;24.60;21.30;;;;;;;17.18;92.36;155776.41;4983741;28;20550;-87
2023/05/23 09:24:36;;;;;;;21.20;18.93;;;;;;;17.20;91.69;155780.28;4990126;28;20492;-87
2023/05/23 09:27:06;;;;;;;19.63;17.27;;;;;;;17.19;91.55;155777.66;4977845;28;20851;-87
2023/05/23 09:29:33;;;;;;;20.80;18.60;;;;;;;17.18;90.97;155775.09;4976306;28;20464;-87
2023/05/23 09:32:00;;;;;;;22.33;18.70;;;;;;;17.20;90.79;155780.28;5009164;28;20445;-87
2023/05/23 09:34:29;;;;;;;20.23;18.13;;;;;;;17.20;91.08;155780.28;4990723;28;20484;-88
2023/05/23 09:36:56;;;;;;;18.50;16.40;;;;;;;17.22;90.20;155785.47;4995851;28;20449;-88
2023/05/23 09:39:23;;;;;;;18.17;16.27;;;;;;;17.22;90.33;155786.78;5000988;28;20998;-87
2023/05/23 09:41:51;;;;;;;17.50;15.60;;;;;;;17.22;89.78;155786.78;4973302;28;21009;-87
2023/05/23 09:44:22;;;;;;;18.60;15.83;;;;;;;17.24;89.65;155790.66;4986962;28;20469;-87
2023/05/23 09:46:52;;;;;;;20.37;17.00;;;;;;;17.26;90.51;155795.91;5008162;28;20449;-87
2023/05/23 09:49:21;;;;;;;18.00;15.63;;;;;;;17.32;89.65;155811.50;4991053;28;20468;-87
2023/05/23 09:51:57;;;;;;;17.27;15.37;;;;;;;17.36;88.89;155821.94;4975190;28;20454;-87
2023/05/23 09:54:24;;;;;;;18.80;16.43;;;;;;;17.39;89.00;155831.06;4997309;28;20518;-87
2023/05/23 09:56:55;;;;;;;17.90;15.43;;;;;;;17.45;88.46;155845.34;4991624;28;20540;-87
2023/05/23 09:59:23;;;;;;;17.47;14.97;;;;;;;17.51;88.64;155860.97;4988927;28;20838;-88
2023/05/23 10:01:51;;;;;;;17.50;14.57;;;;;;;17.55;88.13;155871.47;4990423;28;20536;-87
2023/05/23 10:04:21;;;;;;;17.60;15.67;;;;;;;17.60;87.85;155885.78;5008050;28;20489;-88
2023/05/23 10:06:52;;;;;;;18.80;15.93;;;;;;;17.60;87.75;155884.47;4984904;28;20450;-88
2023/05/23 10:09:21;;;;;;;16.53;14.30;;;;;;;17.61;88.17;155887.03;4998752;28;20503;-88
2023/05/23 10:12:35;;;;;;;19.57;16.53;;;;;;;17.68;87.97;155903.97;4974819;28;20779;-87
2023/05/23 10:15:02;;;;;;;16.70;15.00;;;;;;;17.70;85.96;155909.19;4989922;28;20506;-88
2023/05/23 10:17:33;;;;;;;18.43;15.67;;;;;;;17.71;85.73;155911.81;5007831;28;20847;-88
2023/05/23 10:20:07;;;;;;;18.70;14.00;;;;;;;17.74;85.68;155920.88;4973034;28;20467;-87
2023/05/23 10:22:34;;;;;;;15.70;14.00;;;;;;;17.81;84.92;155937.84;5002874;28;20503;-88
2023/05/23 10:25:00;;;;;;;17.77;14.10;;;;;;;17.88;85.01;155957.34;4997987;28;20839;-88
2023/05/23 10:27:29;;;;;;;17.13;14.30;;;;;;;17.96;85.00;155978.19;4988833;28;20507;-89
2023/05/23 10:29:55;;;;;;;18.57;13.80;;;;;;;18.15;83.49;156027.69;4998490;28;20449;-89
2023/05/23 10:32:23;;;;;;;15.90;14.20;;;;;;;18.18;82.54;156035.50;4990586;28;20460;-89
2023/05/23 10:34:56;;;;;;;14.30;12.83;;;;;;;18.15;82.93;156027.69;4985568;28;20507;-89
2023/05/23 10:37:27;;;;;;;14.60;13.10;;;;;;;18.22;82.52;156044.59;4979511;28;21037;-89
2023/05/23 10:39:58;;;;;;;16.40;14.47;;;;;;;18.35;82.80;156077.19;4981921;28;20933;-88
2023/05/23 10:42:35;;;;;;;12.80;11.50;;;;;;;18.51;82.74;156118.88;4986535;28;20446;-88
2023/05/23 10:45:15;;;;;;;13.27;11.97;;;;;;;18.67;79.62;156160.56;4989107;28;21026;-89
2023/05/23 10:47:42;;;;;;;13.37;12.03;;;;;;;18.70;78.83;156168.38;4982325;28;20447;-89
2023/05/23 10:50:12;;;;;;;13.60;11.40;;;;;;;18.72;77.68;156174.91;4990939;28;20441;-89
2023/05/23 10:52:39;;;;;;;14.10;11.80;;;;;;;18.61;78.10;156144.97;4985954;28;20449;-89
2023/05/23 10:55:13;;;;;;;14.43;12.43;;;;;;;18.58;78.46;156138.44;4986088;28;20449;-89
2023/05/23 10:57:42;;;;;;;12.80;11.47;;;;;;;18.68;79.36;156163.19;5005765;28;20461;-88
2023/05/23 11:00:14;;;;;;;12.37;11.07;;;;;;;18.74;79.71;156178.84;4993822;28;20448;-88
2023/05/23 11:02:47;;;;;;;12.30;11.07;;;;;;;18.76;79.40;156184.03;4991200;28;20453;-89
2023/05/23 11:05:22;;;;;;;12.40;11.07;;;;;;;18.80;78.50;156195.75;5007013;28;20511;-89
2023/05/23 11:08:07;;;;;;;12.77;11.47;;;;;;;18.84;78.38;156204.88;4988937;28;20530;-89
2023/05/23 11:10:51;;;;;;;12.37;11.07;;;;;;;18.91;78.89;156223.09;5015731;28;20510;-89
2023/05/23 11:13:21;;;;;;;13.23;11.50;;;;;;;19.00;78.25;156245.28;4999807;28;20460;-89